Latest Weather Observations for Bulman

IDD60801

Issued at 8:01 am CST Wednesday 24 October 2018 (issued every 10 minutes, with the page automatically refreshed every 10 minutes)

About weather observations | Map of weather stations | Latest weather observations for NT | Other Formats
Station Details ID: 014627 Name: BULMAN Lat: -13.67 Lon: 134.34 Height: 103.4 m
Data from the previous 72 hours. | See also: Recent months at Bulman
Date/Time
CST
Temp
°C
App
Temp
°C
Dew
Point
°C
Rel
Hum
%
Delta-T
°C
Wind Press
QNH
hPa
Press
MSL
hPa
Rain since
9am
mm
Dir  Spd
km/h
Gust
km/h
Spd
kts
Gust
kts
24/07:30am 27.8 32.3 23.0 75 3.3 NNE 4 9 2 5 1012.5 1011.8 0.0
24/07:00am 26.4 30.1 22.3 78 2.8 NNW 6 7 3 4 1012.2 1011.5 0.0
24/06:30am 25.2 29.8 21.7 81 2.3 CALM 0 6 0 3 1011.9 1011.2 0.0
24/06:00am 24.8 28.8 21.3 81 2.3 NNW 2 6 1 3 1011.6 1010.9 0.0
24/05:30am 24.9 29.2 21.2 80 2.5 CALM 0 0 0 0 1011.1 1010.4 0.0
24/05:00am 25.4 29.9 21.5 79 2.6 CALM 0 0 0 0 1010.8 1010.1 0.0
24/04:30am 25.6 29.1 21.1 76 3.0 NW 4 7 2 4 1010.5 1009.7 0.0
24/04:00am 25.6 29.7 20.8 75 3.2 CALM 0 0 0 0 1010.2 1009.4 0.0
24/03:30am 25.8 29.8 20.6 73 3.4 CALM 0 0 0 0 1010.1 1009.3 0.0
24/03:00am 26.5 30.2 20.8 71 3.8 NNW 2 7 1 4 1010.1 1009.3 0.0
24/02:30am 26.7 30.1 20.1 67 4.3 NNW 2 6 1 3 1010.1 1009.3 0.0
24/02:00am 27.4 30.2 20.5 66 4.6 NNW 6 7 3 4 1010.2 1009.4 0.0
24/01:30am 27.8 31.7 20.4 64 4.9 CALM 0 6 0 3 1010.5 1009.7 0.0
24/01:00am 28.6 31.3 20.3 60 5.5 NNE 6 9 3 5 1010.5 1009.7 0.0
24/12:30am 29.3 32.0 20.7 59 5.7 N 7 11 4 6 1010.7 1009.9 0.0
24/12:00am 29.6 31.9 20.7 58 5.9 NNW 9 13 5 7 1010.7 1009.9 0.0
 
Date/Time
CST
Temp
°C
App
Temp
°C
Dew
Point
°C
Rel
Hum
%
Delta-T
°C
Wind Press
QNH
hPa
Press
MSL
hPa
Rain since
9am
mm
Dir  Spd
km/h
Gust
km/h
Spd
kts
Gust
kts
23/11:30pm 29.9 32.1 19.6 54 6.8 NNW 7 11 4 6 1011.0 1010.3 0.0
23/11:00pm 30.2 32.4 19.6 53 7.0 N 7 9 4 5 1011.0 1010.3 0.0
23/10:30pm 30.7 32.7 19.1 50 7.6 N 7 11 4 6 1010.9 1010.2 0.0
23/10:00pm 31.3 32.5 18.3 46 8.4 N 9 15 5 8 1010.6 1009.8 0.0
23/09:30pm 31.7 31.9 16.8 40 9.5 N 11 17 6 9 1010.3 1009.5 0.0
23/09:00pm 32.1 31.3 12.8 30 11.6 N 9 13 5 7 1010.1 1009.3 0.0
23/08:30pm 33.1 32.3 11.6 27 12.7 N 7 13 4 7 1009.7 1008.9 0.0
23/08:00pm 33.7 32.5 11.5 26 13.1 NNE 9 15 5 8 1009.4 1008.6 0.0
23/07:30pm 34.0 33.2 11.8 26 13.2 NE 7 11 4 6 1009.1 1008.3 0.0
23/07:00pm 34.3 33.6 12.0 25 13.3 NE 7 13 4 7 1008.8 1008.0 0.0
23/06:30pm 34.6 33.0 12.9 27 13.2 ENE 13 22 7 12 1008.6 1007.8 0.0
23/06:00pm 34.8 33.1 12.5 26 13.5 ENE 13 24 7 13 1008.3 1007.5 0.0
23/05:30pm 35.7 32.3 11.4 23 14.5 ENE 20 32 11 17 1008.0 1007.2 0.0
23/05:00pm 37.6 36.7 11.5 21 15.7 NNW 7 11 4 6 1007.3 1006.5 0.0
23/04:30pm 38.5 37.8 11.5 20 16.3 NW 6 11 3 6 1007.0 1006.2 0.0
23/04:00pm 38.5 37.8 11.5 20 16.3 NNW 6 11 3 6 1006.9 1006.1 0.0
23/03:30pm 38.7 37.5 11.7 20 16.3 WNW 9 19 5 10 1007.0 1006.2 0.0
23/03:00pm 38.3 37.2 12.1 21 15.9 WSW 9 17 5 9 1007.4 1006.6 0.0
23/02:30pm 37.8 37.1 13.1 23 15.2 NNW 9 13 5 7 1007.7 1006.9 0.0
23/02:00pm 37.2 36.7 12.6 23 15.0 WNW 7 11 4 6 1008.2 1007.4 0.0
23/01:30pm 36.9 36.7 14.8 26 13.9 SW 9 17 5 9 1008.6 1007.8 0.0
23/01:00pm 36.1 36.3 15.8 30 12.9 NNW 9 15 5 8 1009.3 1008.5 0.0
23/12:30pm 36.5 37.6 17.1 31 12.6 NNW 7 11 4 6 1009.9 1009.1 0.0
23/12:00pm 34.7 36.1 17.9 37 10.9 NNW 7 15 4 8 1010.5 1009.7 0.0
23/11:30am 33.8 34.8 18.7 40 9.9 WNW 11 20 6 11 1011.0 1010.3 0.0
23/11:00am 32.8 34.5 19.3 45 8.9 NNW 9 15 5 8 1011.3 1010.6 0.0
23/10:30am 31.4 33.3 19.7 49 7.7 W 9 15 5 8 1011.5 1010.8 0.0
23/10:00am 30.0 32.0 20.0 55 6.6 NW 9 13 5 7 1011.7 1011.0 0.0
23/09:30am 29.3 31.5 20.5 59 5.8 NNW 9 15 5 8 1011.5 1010.8 0.0
23/09:00am 28.5 30.0 20.5 62 5.3 NW 13 19 7 10 1011.5 1010.8 0.0
23/08:30am 28.1 30.5 20.9 65 4.8 W 9 15 5 8 1011.9 1011.2 0.0
23/08:00am 28.0 30.4 21.5 67 4.4 WNW 11 19 6 10 1011.7 1011.0 0.0
23/07:30am 28.0 30.0 21.5 67 4.4 WNW 13 22 7 12 1011.1 1010.4 0.0
23/07:00am 27.8 29.7 21.3 67 4.3 W 13 17 7 9 1011.0 1010.3 0.0
23/06:30am 27.8 32.1 21.1 67 4.5 CALM 0 0 0 0 1011.2 1010.5 0.0
23/06:00am 28.0 31.0 20.8 65 4.8 NE 6 7 3 4 1011.1 1010.4 0.0
23/05:30am 28.1 30.3 20.4 63 5.1 NNE 9 17 5 9 1010.9 1010.2 0.0
23/05:00am 28.4 30.9 20.2 61 5.4 NW 7 11 4 6 1011.1 1010.4 0.0
23/04:30am 28.5 31.1 20.0 60 5.6 WNW 6 13 3 7 1011.0 1010.3 0.0
23/04:00am 28.4 32.1 19.9 60 5.6 CALM 0 7 0 4 1010.5 1009.7 0.0
23/03:30am 28.3 31.8 19.5 59 5.7 CALM 0 6 0 3 1009.8 1009.0 0.0
23/03:00am 28.4 30.8 19.6 59 5.8 NNW 6 7 3 4 1009.5 1008.7 0.0
23/02:30am 28.6 30.9 19.5 58 5.9 N 6 9 3 5 1009.5 1008.7 0.0
23/02:00am 29.0 31.2 19.3 55 6.3 N 6 7 3 4 1009.9 1009.1 0.0
23/01:30am 29.0 31.0 18.7 53 6.7 N 6 9 3 5 1010.0 1009.2 0.0
23/01:00am 29.5 31.2 18.6 52 7.0 N 7 11 4 6 1010.3 1009.5 0.0
23/12:30am 29.9 31.1 18.3 49 7.5 N 9 15 5 8 1010.5 1009.7 0.0
23/12:00am 30.2 31.8 18.3 49 7.7 N 7 13 4 7 1011.0 1010.3 0.0
 
Date/Time
CST
Temp
°C
App
Temp
°C
Dew
Point
°C
Rel
Hum
%
Delta-T
°C
Wind Press
QNH
hPa
Press
MSL
hPa
Rain since
9am
mm
Dir  Spd
km/h
Gust
km/h
Spd
kts
Gust
kts
22/11:30pm 30.6 32.2 18.3 47 7.9 N 7 13 4 7 1011.1 1010.4 0.0
22/11:00pm 30.9 31.4 18.3 47 8.1 N 13 19 7 10 1010.8 1010.1 0.0
22/10:30pm 31.4 31.7 18.0 44 8.6 N 13 20 7 11 1010.5 1009.7 0.0
22/10:00pm 31.9 32.2 18.8 45 8.6 N 15 24 8 13 1010.5 1009.7 0.0
22/09:30pm 32.6 32.5 18.8 44 9.0 N 17 30 9 16 1009.8 1009.0 0.0
22/09:00pm 33.3 33.1 19.4 44 9.2 NNE 19 28 10 15 1009.7 1008.9 0.0
22/08:30pm 34.6 34.1 16.9 35 11.4 N 15 26 8 14 1008.6 1007.8 0.0
22/08:00pm 35.1 36.1 14.4 29 12.8 N 2 6 1 3 1007.9 1007.1 0.0
22/07:30pm 35.6 36.8 13.7 27 13.5 CALM 0 0 0 0 1007.7 1006.9 0.0
22/07:00pm 36.6 36.3 12.8 24 14.5 N 6 9 3 5 1007.3 1006.5 0.0
22/06:30pm 37.4 36.7 12.1 22 15.3 NNE 7 11 4 6 1007.0 1006.2 0.0
22/06:00pm 38.1 36.8 11.2 20 16.1 NNE 9 13 5 7 1006.7 1005.9 0.0
22/05:30pm 38.7 37.9 11.7 20 16.4 NNE 7 15 4 8 1006.4 1005.6 0.0
22/05:00pm 38.8 37.2 10.2 18 16.9 ENE 9 17 5 9 1006.2 1005.5 0.0
22/04:30pm 39.0 37.1 10.4 18 17.0 NE 11 20 6 11 1006.2 1005.5 0.0
22/04:00pm 38.7 37.8 12.5 21 16.0 NNE 9 15 5 8 1006.5 1005.7 0.0
22/03:30pm 39.2 37.8 9.7 17 17.4 E 7 15 4 8 1006.7 1005.9 0.0
22/03:00pm 38.5 37.5 12.3 21 16.0 N 9 17 5 9 1007.0 1006.2 0.0
22/02:30pm 40.3 39.9 13.0 20 16.9 WNW 7 13 4 7 1007.3 1006.5 0.0
22/02:00pm 40.0 39.0 13.5 21 16.5 ENE 11 19 6 10 1007.9 1007.1 0.0
22/01:30pm 38.4 38.0 12.9 22 15.7 ESE 7 15 4 8 1008.5 1007.7 0.0
22/01:00pm 38.8 37.7 13.2 21 15.8 NE 11 20 6 11 1009.2 1008.4 0.0
22/12:30pm 37.6 37.0 13.6 24 14.9 WNW 9 15 5 8 1009.8 1009.0 0.0
22/12:00pm 37.5 37.3 14.7 25 14.3 NNW 9 24 5 13 1010.5 1009.7 0.0
22/11:30am 36.5 36.0 13.9 26 14.0 NNW 9 17 5 9 1011.2 1010.5 0.0
22/11:00am 35.3 35.2 14.0 28 13.1 ENE 7 11 4 6 1011.8 1011.1 0.0
22/10:30am 34.9 34.7 15.7 31 12.1 NNW 11 19 6 10 1012.3 1011.6 0.0
22/10:00am 33.9 34.7 17.2 37 10.7 NW 9 17 5 9 1012.7 1012.0 0.0
22/09:30am 33.0 34.3 18.4 42 9.5 WNW 9 17 5 9 1012.9 1012.2 0.0
22/09:00am 32.0 33.4 18.6 45 8.7 NNW 9 17 5 9 1013.0 1012.3 0.0
22/08:30am 30.9 33.0 20.2 53 7.1 WNW 9 13 5 7 1013.1 1012.4 0.0
22/08:00am 28.8 31.3 21.1 63 5.1 NNW 9 11 5 6 1013.2 1012.5 0.0
22/07:30am 27.4 30.6 21.2 69 4.1 NNW 6 9 3 5 1012.8 1012.1 0.0
22/07:00am 26.1 29.9 20.9 73 3.4 N 2 6 1 3 1012.6 1011.9 0.0
22/06:30am 24.9 28.6 19.9 74 3.2 CALM 0 0 0 0 1012.1 1011.4 0.0
22/06:00am 24.7 28.5 20.2 76 2.9 CALM 0 0 0 0 1012.0 1011.3 0.0
22/05:30am 24.9 28.5 19.7 73 3.4 CALM 0 0 0 0 1011.8 1011.1 0.0
22/05:00am 25.2 29.0 20.2 74 3.3 CALM 0 0 0 0 1011.4 1010.7 0.0
22/04:30am 25.2 28.9 20.0 73 3.4 CALM 0 0 0 0 1011.1 1010.4 0.0
22/04:00am 25.7 29.4 20.0 71 3.7 CALM 0 0 0 0 1010.6 1009.8 0.0
22/03:30am 26.2 29.6 20.1 69 4.0 NNW 2 6 1 3 1010.4 1009.6 0.0
22/03:00am 26.6 29.3 20.2 68 4.2 NNW 6 7 3 4 1010.3 1009.5 0.0
22/02:30am 27.0 29.6 20.1 66 4.5 N 6 7 3 4 1010.3 1009.5 0.0
22/02:00am 27.4 29.8 20.0 64 4.8 NNW 7 9 4 5 1010.6 1009.8 0.0
22/01:30am 27.9 30.4 20.2 63 5.1 N 7 11 4 6 1010.8 1010.1 0.0
22/01:00am 28.4 30.5 20.2 61 5.4 N 9 15 5 8 1011.1 1010.4 0.0
22/12:30am 28.7 31.0 19.9 59 5.8 N 7 11 4 6 1011.4 1010.7 0.0
22/12:00am 29.2 31.5 19.8 57 6.2 N 7 13 4 7 1011.5 1010.8 0.0
 
Date/Time
CST
Temp
°C
App
Temp
°C
Dew
Point
°C
Rel
Hum
%
Delta-T
°C
Wind Press
QNH
hPa
Press
MSL
hPa
Rain since
9am
mm
Dir  Spd
km/h
Gust
km/h
Spd
kts
Gust
kts
21/11:30pm 29.8 31.2 19.5 54 6.8 NNE 11 15 6 8 1011.6 1010.9 0.0
21/11:00pm 30.3 31.8 19.0 50 7.4 NNE 9 17 5 9 1011.8 1011.1 0.0
21/10:30pm 30.9 32.3 18.6 48 8.0 NNE 9 15 5 8 1011.8 1011.1 0.0
21/10:00pm 31.6 32.0 18.2 44 8.7 NNE 13 20 7 11 1011.5 1010.8 0.0
21/09:30pm 32.4 33.4 18.6 44 9.0 NNE 11 20 6 11 1011.1 1010.4 0.0
21/09:00pm 32.6 33.3 18.0 41 9.5 NNE 11 17 6 9 1010.8 1010.1 0.0
21/08:30pm 31.3 31.0 14.4 35 10.3 N 9 20 5 11 1010.3 1009.5 0.0
21/08:00pm 32.2 33.1 12.9 31 11.6 CALM 0 0 0 0 1009.6 1008.8 0.0
21/07:30pm 33.2 33.9 12.2 28 12.5 CALM 0 0 0 0 1009.3 1008.5 0.0
21/07:00pm 34.9 35.5 12.0 25 13.7 CALM 0 0 0 0 1009.0 1008.2 0.0
21/06:30pm 36.2 35.4 11.8 23 14.6 NE 7 13 4 7 1008.6 1007.8 0.0
21/06:00pm 37.1 36.5 11.8 22 15.2 E 6 9 3 5 1008.3 1007.5 0.0
21/05:30pm 37.4 35.8 11.4 21 15.6 ENE 11 17 6 9 1008.1 1007.3 0.0
21/05:00pm 38.3 36.5 12.1 21 15.9 NNE 13 19 7 10 1008.0 1007.2 0.0
21/04:30pm 38.4 37.0 12.2 21 16.0 NE 11 19 6 10 1008.2 1007.4 0.0
21/04:00pm 37.8 36.6 11.7 21 15.7 NE 9 17 5 9 1008.3 1007.5 0.0
21/03:30pm 38.1 36.4 11.2 20 16.1 ENE 11 20 6 11 1008.5 1007.7 0.0
21/03:00pm 38.4 37.9 12.2 21 16.0 WNW 6 13 3 7 1008.8 1008.0 0.0
21/02:30pm 38.0 36.9 11.9 21 15.8 NNW 9 17 5 9 1009.1 1008.3 0.0
21/02:00pm 38.0 35.9 11.1 20 16.1 ENE 13 28 7 15 1009.6 1008.8 0.0
21/01:30pm 37.9 36.6 11.1 20 16.0 NNE 9 17 5 9 1010.3 1009.5 0.0
21/01:00pm 37.3 36.0 11.3 21 15.5 NNE 9 20 5 11 1010.9 1010.2 0.0
21/12:30pm 37.4 36.0 13.4 24 14.8 NNE 13 20 7 11 1011.7 1011.0 0.0
21/12:00pm 37.4 35.8 12.8 23 15.0 NNE 13 20 7 11 1012.4 1011.7 0.0
21/11:30am 36.3 35.2 14.3 27 13.7 NNE 13 22 7 12 1013.0 1012.3 0.0
21/11:00am 35.7 35.0 15.4 29 12.8 N 13 22 7 12 1013.6 1012.9 0.0
21/10:30am 35.0 35.0 15.3 30 12.4 N 9 15 5 8 1014.1 1013.4 0.0
21/10:00am 33.3 34.2 16.6 36 10.6 NNW 7 15 4 8 1014.2 1013.5 0.0
21/09:30am 32.3 33.3 17.7 41 9.4 WNW 9 15 5 8 1014.4 1013.7 0.0
21/09:00am 31.3 32.5 19.9 50 7.5 NW 13 19 7 10 1014.4 1013.7 0.0
21/08:30am 30.3 32.5 20.5 55 6.5 NW 9 13 5 7 1014.4 1013.7 0.0

Other Formats:

Comma delimited format used in spreadsheet applications
http://www.bom.gov.au/fwo/IDD60801/IDD60801.94143.axf

JavaScript Object Notation format (JSON) in row-major order
http://www.bom.gov.au/fwo/IDD60801/IDD60801.94143.json